Time;durP1;ratioP1;P1;durP2;ratioP2;P2;SDS_P1;SDS_P2;PMS_P1;PMS_P2;Temp;Humidity;BMP_temperature;BMP_pressure;BME280_temperature;BME280_humidity;BME280_pressure;Samples;Min_cycle;Max_cycle;Signal;HPM_P1;HPM_P2
2021/08/13 00:02:10;;;;;;;;;;;;;;;;;;5003203;28;19933;-83
2021/08/13 00:04:39;;;;;;;;;;;;;;;;;;5004407;28;19933;-81
2021/08/13 00:07:07;;;;;;;;;;;;;;;;;;5021498;28;19926;-80
2021/08/13 00:09:36;;;;;;;;;;;;;;;;;;5006209;28;19925;-83
2021/08/13 00:12:04;;;;;;;;;;;;;;;;;;5021052;28;20399;-81
2021/08/13 00:14:32;;;;;;;;;;;;;;;;;;5016228;28;19933;-81
2021/08/13 00:17:01;;;;;;;;;;;;;;;;;;5001102;28;19936;-84
2021/08/13 00:19:31;;;;;;;;;;;;;;;;;;5036658;28;19925;-81
2021/08/13 00:21:59;;;;;;;;;;;;;;;;;;5000527;28;19932;-80
2021/08/13 00:24:27;;;;;;;;;;;;;;;;;;4997451;28;19926;-81
2021/08/13 00:26:56;;;;;;;;;;;;;;;;;;5021787;28;20214;-80
2021/08/13 00:29:24;;;;;;;;;;;;;;;;;;5018592;28;19940;-83
2021/08/13 00:31:52;;;;;;;;;;;;;;;;;;5011503;28;19925;-84
2021/08/13 00:34:21;;;;;;;;;;;;;;;;;;5031597;28;19936;-81
2021/08/13 00:36:51;;;;;;;;;;;;;;;;;;5020224;28;20379;-84
2021/08/13 00:39:19;;;;;;;;;;;;;;;;;;5017070;28;19925;-80
2021/08/13 00:41:48;;;;;;;;;;;;;;;;;;5017859;28;19936;-80
2021/08/13 00:44:17;;;;;;;;;;;;;;;;;;5021245;28;19925;-80
2021/08/13 00:46:45;;;;;;;;;;;;;;;;;;5002527;28;19932;-81
2021/08/13 00:49:27;;;;;;;;;;;;;;;;;;5018481;28;19932;-82
2021/08/13 00:52:09;;;;;;;;;;;;;;;;;;5018347;28;19925;-80
2021/08/13 00:54:38;;;;;;;;;;;;;;;;;;5015966;28;19925;-81
2021/08/13 00:57:07;;;;;;;;;;;;;;;;;;5000782;28;19929;-82
2021/08/13 00:59:58;;;;;;;;;;;;;;;;;;4980870;28;19932;-80
2021/08/13 01:02:38;;;;;;;;;;;;;;;;;;5015479;28;19932;-82
2021/08/13 01:05:16;;;;;;;;;;;;;;;;;;5011953;28;19925;-80
2021/08/13 01:07:46;;;;;;;;;;;;;;;;;;5035807;28;19933;-80
2021/08/13 01:10:17;;;;;;;;;;;;;;;;;;5011617;28;19933;-82
2021/08/13 01:12:53;;;;;;;;;;;;;;;;;;5021129;28;19933;-83
2021/08/13 01:15:24;;;;;;;;;;;;;;;;;;5016519;28;19940;-84
2021/08/13 01:17:53;;;;;;;;;;;;;;;;;;5027377;28;19925;-81
2021/08/13 01:20:26;;;;;;;;;;;;;;;;;;5033037;28;20480;-80
2021/08/13 01:22:56;;;;;;;;;;;;;;;;;;5001567;28;19925;-81
2021/08/13 01:25:27;;;;;;;;;;;;;;;;;;4998119;28;19940;-81
2021/08/13 01:27:56;;;;;;;;;;;;;;;;;;5001922;28;19929;-82
2021/08/13 01:30:25;;;;;;;;;;;;;;;;;;5020228;28;19933;-80
2021/08/13 01:33:00;;;;;;;;;;;;;;;;;;5029057;28;19925;-82
2021/08/13 01:35:31;;;;;;;;;;;;;;;;;;5001166;28;20426;-79
2021/08/13 01:38:00;;;;;;;;;;;;;;;;;;5034231;28;19933;-81
2021/08/13 01:40:29;;;;;;;;;;;;;;;;;;4997332;28;20319;-81
2021/08/13 01:42:58;;;;;;;;;;;;;;;;;;5025235;28;19935;-82
2021/08/13 01:45:30;;;;;;;;;;;;;;;;;;4999991;28;19925;-82
2021/08/13 01:48:01;;;;;;;;;;;;;;;;;;5019886;28;20414;-80
2021/08/13 01:50:33;;;;;;;;;;;;;;;;;;4997331;28;19932;-80
2021/08/13 01:53:03;;;;;;;;;;;;;;;;;;5014701;28;19931;-80
2021/08/13 01:55:31;;;;;;;;;;;;;;;;;;5033060;28;19949;-83
2021/08/13 01:58:01;;;;;;;;;;;;;;;;;;5016301;28;19925;-84
2021/08/13 02:00:30;;;;;;;;;;;;;;;;;;5014917;28;19932;-80
2021/08/13 02:02:58;;;;;;;;;;;;;;;;;;5018123;28;20630;-80
2021/08/13 02:05:30;;;;;;;;;;;;;;;;;;5019325;28;20572;-84
2021/08/13 02:08:00;;;;;;;;;;;;;;;;;;5004368;28;19928;-81
2021/08/13 02:10:31;;;;;;;;;;;;;;;;;;5002180;28;19925;-83
2021/08/13 02:12:59;;;;;;;;;;;;;;;;;;5013460;28;20422;-83
2021/08/13 02:15:28;;;;;;;;;;;;;;;;;;5016366;28;19954;-79
2021/08/13 02:17:59;;;;;;;;;;;;;;;;;;5018054;28;19926;-79
2021/08/13 02:20:28;;;;;;;;;;;;;;;;;;5025357;28;19925;-81
2021/08/13 02:22:58;;;;;;;;;;;;;;;;;;5032629;28;19926;-80
2021/08/13 02:25:29;;;;;;;;;;;;;;;;;;5025354;28;20433;-80
2021/08/13 02:27:59;;;;;;;;;;;;;;;;;;5003460;28;19932;-80
2021/08/13 02:30:31;;;;;;;;;;;;;;;;;;5022065;28;19925;-80
2021/08/13 02:33:00;;;;;;;;;;;;;;;;;;5005338;28;19929;-84
2021/08/13 02:35:31;;;;;;;;;;;;;;;;;;5007872;28;19924;-80
2021/08/13 02:38:04;;;;;;;;;;;;;;;;;;5004768;28;19925;-80
2021/08/13 02:40:34;;;;;;;;;;;;;;;;;;5020472;28;19929;-85
2021/08/13 02:43:07;;;;;;;;;;;;;;;;;;5041268;28;19925;-80
2021/08/13 02:45:39;;;;;;;;;;;;;;;;;;5037750;28;19932;-83
2021/08/13 02:48:08;;;;;;;;;;;;;;;;;;5030555;28;19925;-80
2021/08/13 02:50:44;;;;;;;;;;;;;;;;;;5014651;28;19929;-80
2021/08/13 02:53:16;;;;;;;;;;;;;;;;;;5015684;28;19925;-82
2021/08/13 02:55:46;;;;;;;;;;;;;;;;;;5004372;28;19925;-80
2021/08/13 02:58:15;;;;;;;;;;;;;;;;;;5020708;28;19930;-80
2021/08/13 03:00:44;;;;;;;;;;;;;;;;;;5037934;28;19939;-82
2021/08/13 03:03:14;;;;;;;;;;;;;;;;;;5004511;28;19932;-84
2021/08/13 03:05:46;;;;;;;;;;;;;;;;;;5006465;28;19925;-83
2021/08/13 03:08:15;;;;;;;;;;;;;;;;;;5022668;28;19930;-82
2021/08/13 03:10:44;;;;;;;;;;;;;;;;;;5036479;28;19948;-80
2021/08/13 03:13:17;;;;;;;;;;;;;;;;;;5018763;28;19932;-80
2021/08/13 03:15:46;;;;;;;;;;;;;;;;;;5003622;28;20413;-83
2021/08/13 03:18:16;;;;;;;;;;;;;;;;;;5013980;28;19945;-84
2021/08/13 03:20:45;;;;;;;;;;;;;;;;;;5018298;28;19933;-80
2021/08/13 03:23:13;;;;;;;;;;;;;;;;;;5018955;28;19933;-81
2021/08/13 03:25:45;;;;;;;;;;;;;;;;;;5002117;28;19932;-80
2021/08/13 03:28:18;;;;;;;;;;;;;;;;;;5014100;28;19933;-81
2021/08/13 03:30:49;;;;;;;;;;;;;;;;;;5020404;28;20318;-80
2021/08/13 03:33:24;;;;;;;;;;;;;;;;;;5015303;28;19925;-83
2021/08/13 03:35:55;;;;;;;;;;;;;;;;;;5018489;28;19929;-80
2021/08/13 03:38:24;;;;;;;;;;;;;;;;;;5032336;28;20020;-82
2021/08/13 03:40:54;;;;;;;;;;;;;;;;;;5005208;28;19936;-80
2021/08/13 03:43:24;;;;;;;;;;;;;;;;;;5044771;28;19932;-79
2021/08/13 03:45:52;;;;;;;;;;;;;;;;;;5024591;28;19932;-80
2021/08/13 03:48:20;;;;;;;;;;;;;;;;;;5018597;28;20000;-83
2021/08/13 03:50:49;;;;;;;;;;;;;;;;;;5020913;28;19940;-80
2021/08/13 03:53:19;;;;;;;;;;;;;;;;;;5036388;28;19933;-79
2021/08/13 03:55:48;;;;;;;;;;;;;;;;;;5003195;28;19932;-79
2021/08/13 03:58:17;;;;;;;;;;;;;;;;;;5015396;28;19932;-82
2021/08/13 04:00:46;;;;;;;;;;;;;;;;;;5013467;28;20347;-78
2021/08/13 04:03:15;;;;;;;;;;;;;;;;;;4996032;28;20247;-81
2021/08/13 04:05:44;;;;;;;;;;;;;;;;;;5016158;28;19925;-80
2021/08/13 04:08:12;;;;;;;;;;;;;;;;;;5018909;28;19936;-84
2021/08/13 04:10:40;;;;;;;;;;;;;;;;;;4998401;28;19952;-79
2021/08/13 04:13:09;;;;;;;;;;;;;;;;;;5010366;28;20139;-79
2021/08/13 04:15:45;;;;;;;;;;;;;;;;;;5013369;28;20395;-79
2021/08/13 04:18:14;;;;;;;;;;;;;;;;;;5020864;28;19929;-79
2021/08/13 04:20:42;;;;;;;;;;;;;;;;;;5016970;28;19925;-80
2021/08/13 04:23:12;;;;;;;;;;;;;;;;;;5020138;28;19932;-79
2021/08/13 04:25:41;;;;;;;;;;;;;;;;;;5004856;28;20310;-79
2021/08/13 04:28:09;;;;;;;;;;;;;;;;;;5020631;28;19925;-79
2021/08/13 04:30:38;;;;;;;;;;;;;;;;;;5016366;28;19926;-82
2021/08/13 04:33:11;;;;;;;;;;;;;;;;;;5034365;28;19925;-80
2021/08/13 04:35:44;;;;;;;;;;;;;;;;;;4996759;28;20314;-80
2021/08/13 04:38:13;;;;;;;;;;;;;;;;;;5008165;28;19925;-79
2021/08/13 04:40:43;;;;;;;;;;;;;;;;;;4998011;28;19936;-83
2021/08/13 04:43:11;;;;;;;;;;;;;;;;;;5030073;28;19940;-80
2021/08/13 04:45:40;;;;;;;;;;;;;;;;;;5020997;28;19932;-84
2021/08/13 04:48:11;;;;;;;;;;;;;;;;;;5035994;28;19929;-80
2021/08/13 04:50:40;;;;;;;;;;;;;;;;;;5015741;28;20425;-81
2021/08/13 04:53:10;;;;;;;;;;;;;;;;;;5017636;28;19932;-81
2021/08/13 04:55:39;;;;;;;;;;;;;;;;;;5004743;28;19925;-82
2021/08/13 04:58:08;;;;;;;;;;;;;;;;;;5015927;28;19941;-80
2021/08/13 05:00:36;;;;;;;;;;;;;;;;;;5004326;28;19929;-81
2021/08/13 05:03:12;;;;;;;;;;;;;;;;;;5005743;28;19929;-80
2021/08/13 05:05:46;;;;;;;;;;;;;;;;;;5018207;28;19928;-80
2021/08/13 05:08:14;;;;;;;;;;;;;;;;;;4998885;28;19925;-80
2021/08/13 05:10:45;;;;;;;;;;;;;;;;;;5020185;28;19925;-80
2021/08/13 05:13:15;;;;;;;;;;;;;;;;;;5036478;28;20284;-80
2021/08/13 05:15:44;;;;;;;;;;;;;;;;;;5019771;28;19933;-80
2021/08/13 05:18:15;;;;;;;;;;;;;;;;;;5018540;28;19925;-80
2021/08/13 05:20:44;;;;;;;;;;;;;;;;;;4998984;28;19974;-81
2021/08/13 05:23:12;;;;;;;;;;;;;;;;;;5014143;28;19930;-80
2021/08/13 05:25:42;;;;;;;;;;;;;;;;;;5021232;28;19932;-81
2021/08/13 05:28:10;;;;;;;;;;;;;;;;;;5023087;28;19925;-81
2021/08/13 05:30:39;;;;;;;;;;;;;;;;;;4999458;28;19947;-80
2021/08/13 05:33:08;;;;;;;;;;;;;;;;;;4997011;28;19925;-81
2021/08/13 05:35:39;;;;;;;;;;;;;;;;;;5002400;28;20399;-85
2021/08/13 05:38:09;;;;;;;;;;;;;;;;;;5037562;28;19925;-80
2021/08/13 05:40:39;;;;;;;;;;;;;;;;;;5039526;28;19936;-80
2021/08/13 05:43:10;;;;;;;;;;;;;;;;;;5034972;28;19926;-79
2021/08/13 05:45:40;;;;;;;;;;;;;;;;;;5039585;28;20302;-82
2021/08/13 05:48:09;;;;;;;;;;;;;;;;;;5020305;28;19929;-80
2021/08/13 05:50:39;;;;;;;;;;;;;;;;;;5003588;28;19933;-80
2021/08/13 05:53:11;;;;;;;;;;;;;;;;;;5017360;28;19925;-82
2021/08/13 05:55:41;;;;;;;;;;;;;;;;;;5018755;28;19932;-81
2021/08/13 05:58:09;;;;;;;;;;;;;;;;;;5010955;28;19933;-82
2021/08/13 06:00:37;;;;;;;;;;;;;;;;;;5004294;28;19925;-81
2021/08/13 06:03:09;;;;;;;;;;;;;;;;;;4988817;28;19932;-83
2021/08/13 06:05:45;;;;;;;;;;;;;;;;;;5028172;28;19932;-79
2021/08/13 06:08:17;;;;;;;;;;;;;;;;;;4993833;28;19933;-80
2021/08/13 06:10:45;;;;;;;;;;;;;;;;;;4988581;28;19933;-79
2021/08/13 06:13:15;;;;;;;;;;;;;;;;;;4989507;28;20111;-78
2021/08/13 06:15:43;;;;;;;;;;;;;;;;;;5007592;28;19929;-83
2021/08/13 06:18:11;;;;;;;;;;;;;;;;;;5011000;28;20399;-79
2021/08/13 06:20:40;;;;;;;;;;;;;;;;;;5008852;28;20290;-80
2021/08/13 06:23:14;;;;;;;;;;;;;;;;;;5008345;28;20406;-81
2021/08/13 06:25:43;;;;;;;;;;;;;;;;;;5028645;28;20252;-78
2021/08/13 06:28:12;;;;;;;;;;;;;;;;;;5009921;28;19925;-81
2021/08/13 06:30:43;;;;;;;;;;;;;;;;;;5018036;28;19925;-78
2021/08/13 06:33:11;;;;;;;;;;;;;;;;;;5009386;28;20047;-80
2021/08/13 06:35:40;;;;;;;;;;;;;;;;;;5007892;28;19929;-80
2021/08/13 06:38:09;;;;;;;;;;;;;;;;;;5010051;28;19933;-83
2021/08/13 06:40:42;;;;;;;;;;;;;;;;;;5014124;28;19925;-82
2021/08/13 06:43:10;;;;;;;;;;;;;;;;;;4998834;28;19925;-81
2021/08/13 06:45:45;;;;;;;;;;;;;;;;;;4994826;28;19925;-81
2021/08/13 06:48:21;;;;;;;;;;;;;;;;;;5014246;28;19948;-81
2021/08/13 06:50:50;;;;;;;;;;;;;;;;;;5014327;28;19932;-81
2021/08/13 06:53:18;;;;;;;;;;;;;;;;;;5013587;28;19948;-78
2021/08/13 06:55:47;;;;;;;;;;;;;;;;;;4996783;28;19941;-82
2021/08/13 06:58:16;;;;;;;;;;;;;;;;;;5012779;28;20299;-82
2021/08/13 07:00:44;;;;;;;;;;;;;;;;;;5010025;28;19925;-81
2021/08/13 07:03:13;;;;;;;;;;;;;;;;;;4999035;28;19925;-79
2021/08/13 07:05:42;;;;;;;;;;;;;;;;;;5009177;28;20323;-80
2021/08/13 07:08:11;;;;;;;;;;;;;;;;;;4992113;28;20307;-81
2021/08/13 07:10:46;;;;;;;;;;;;;;;;;;4995239;28;19926;-81
2021/08/13 07:13:32;;;;;;;;;;;;;;;;;;4993326;28;19932;-81
2021/08/13 07:16:01;;;;;;;;;;;;;;;;;;4996894;28;19932;-81
2021/08/13 07:18:33;;;;;;;;;;;;;;;;;;5005991;28;20331;-80
2021/08/13 07:21:02;;;;;;;;;;;;;;;;;;5011127;28;19940;-81
2021/08/13 07:23:30;;;;;;;;;;;;;;;;;;4997638;28;19925;-81
2021/08/13 07:25:59;;;;;;;;;;;;;;;;;;5014092;28;19932;-83
2021/08/13 07:28:27;;;;;;;;;;;;;;;;;;5010419;28;19933;-85
2021/08/13 07:30:57;;;;;;;;;;;;;;;;;;4993730;28;20281;-82
2021/08/13 07:33:35;;;;;;;;;;;;;;;;;;5015315;28;20103;-81
2021/08/13 07:36:04;;;;;;;;;;;;;;;;;;5004652;28;20225;-84
2021/08/13 07:38:39;;;;;;;;;;;;;;;;;;5000334;28;19944;-84
2021/08/13 07:41:07;;;;;;;;;;;;;;;;;;5005072;28;20430;-82
2021/08/13 07:43:36;;;;;;;;;;;;;;;;;;5009156;28;19940;-83
2021/08/13 07:46:06;;;;;;;;;;;;;;;;;;5018828;28;19932;-83
2021/08/13 07:48:34;;;;;;;;;;;;;;;;;;5012024;28;19925;-85
2021/08/13 07:51:03;;;;;;;;;;;;;;;;;;4995674;28;19929;-83
2021/08/13 07:53:31;;;;;;;;;;;;;;;;;;5014496;28;19932;-83
2021/08/13 07:56:00;;;;;;;;;;;;;;;;;;5014749;28;19929;-85
2021/08/13 07:58:31;;;;;;;;;;;;;;;;;;5003226;28;19932;-83
2021/08/13 08:00:59;;;;;;;;;;;;;;;;;;5011376;28;19925;-83
2021/08/13 08:03:29;;;;;;;;;;;;;;;;;;5015088;28;19925;-82
2021/08/13 08:05:57;;;;;;;;;;;;;;;;;;5015348;28;19933;-84
2021/08/13 08:08:25;;;;;;;;;;;;;;;;;;5017032;28;20406;-84
2021/08/13 08:10:54;;;;;;;;;;;;;;;;;;5006050;28;19926;-83
2021/08/13 08:13:22;;;;;;;;;;;;;;;;;;5009112;28;19932;-84
2021/08/13 08:15:51;;;;;;;;;;;;;;;;;;5013410;28;19925;-86
2021/08/13 08:18:23;;;;;;;;;;;;;;;;;;5012208;28;19925;-86
2021/08/13 08:20:52;;;;;;;;;;;;;;;;;;5009655;28;20147;-84
2021/08/13 08:23:21;;;;;;;;;;;;;;;;;;5021339;28;19941;-84
2021/08/13 08:25:50;;;;;;;;;;;;;;;;;;5015385;28;19925;-85
2021/08/13 08:28:18;;;;;;;;;;;;;;;;;;5031848;28;20386;-84
2021/08/13 08:30:46;;;;;;;;;;;;;;;;;;5015905;28;19932;-84
2021/08/13 08:33:15;;;;;;;;;;;;;;;;;;5025804;28;19932;-83
2021/08/13 08:35:43;;;;;;;;;;;;;;;;;;5009566;28;19931;-85
2021/08/13 08:38:13;;;;;;;;;;;;;;;;;;5011843;28;19925;-84
2021/08/13 08:40:42;;;;;;;;;;;;;;;;;;5025808;28;19932;-81
2021/08/13 08:43:10;;;;;;;;;;;;;;;;;;5028281;28;19933;-84
2021/08/13 08:45:39;;;;;;;;;;;;;;;;;;5024013;28;19925;-84
2021/08/13 08:48:08;;;;;;;;;;;;;;;;;;5009007;28;20399;-83
2021/08/13 08:54:05;;;;;;;;;;;;;;;;;;4996454;28;19936;-82
2021/08/13 08:56:33;;;;;;;;;;;;;;;;;;5013940;28;19926;-82
2021/08/13 08:59:01;;;;;;;;;;;;;;;;;;5011646;28;19940;-84
2021/08/13 09:01:30;;;;;;;;;;;;;;;;;;5008514;28;19940;-84
2021/08/13 09:03:59;;;;;;;;;;;;;;;;;;5015377;28;19929;-82
2021/08/13 09:06:28;;;;;;;;;;;;;;;;;;5025406;28;20398;-83
2021/08/13 09:08:56;;;;;;;;;;;;;;;;;;5010787;28;19925;-83
2021/08/13 09:11:26;;;;;;;;;;;;;;;;;;5008317;28;19933;-83
2021/08/13 09:13:58;;;;;;;;;;;;;;;;;;5025644;28;20043;-80
2021/08/13 09:16:26;;;;;;;;;;;;;;;;;;5015494;28;20112;-81
2021/08/13 09:18:57;;;;;;;;;;;;;;;;;;5009213;28;19925;-83
2021/08/13 09:21:27;;;;;;;;;;;;;;;;;;5008964;28;23681;-81
2021/08/13 09:23:59;;;;;;;;;;;;;;;;;;5005648;28;19933;-84
2021/08/13 09:26:29;;;;;;;;;;;;;;;;;;5031651;28;19925;-82
2021/08/13 09:29:09;;;;;;;;;;;;;;;;;;5027822;28;19940;-81
2021/08/13 09:31:50;;;;;;;;;;;;;;;;;;5002075;28;20456;-83
2021/08/13 09:34:27;;;;;;;;;;;;;;;;;;5020746;28;19933;-82
2021/08/13 09:36:55;;;;;;;;;;;;;;;;;;5007628;28;19932;-83
2021/08/13 09:39:24;;;;;;;;;;;;;;;;;;5028240;28;19936;-84
2021/08/13 09:41:55;;;;;;;;;;;;;;;;;;4995015;28;19925;-84
2021/08/13 09:44:24;;;;;;;;;;;;;;;;;;5003318;28;19933;-80
2021/08/13 09:46:56;;;;;;;;;;;;;;;;;;5029006;28;19933;-83
2021/08/13 09:49:25;;;;;;;;;;;;;;;;;;5002502;28;19932;-82
2021/08/13 09:51:53;;;;;;;;;;;;;;;;;;5005458;28;19929;-84
2021/08/13 09:54:26;;;;;;;;;;;;;;;;;;4987984;28;19933;-85
2021/08/13 09:57:01;;;;;;;;;;;;;;;;;;4995753;28;19925;-82
2021/08/13 09:59:30;;;;;;;;;;;;;;;;;;4982633;28;19936;-82
2021/08/13 10:01:59;;;;;;;;;;;;;;;;;;5016394;28;19925;-86
2021/08/13 10:04:42;;;;;;;;;;;;;;;;;;5000611;28;19929;-86
2021/08/13 10:07:42;;;;;;;;;;;;;;;;;;5006348;28;19925;-86
2021/08/13 10:15:13;;;;;;;;;;;;;;;;;;4963252;28;19933;-85
2021/08/13 10:18:10;;;;;;;;;;;;;;;;;;4948412;28;20321;-85
2021/08/13 10:20:39;;;;;;;;;;;;;;;;;;4948029;28;20407;-81
2021/08/13 10:23:08;;;;;;;;;;;;;;;;;;4936227;28;19971;-84
2021/08/13 10:25:37;;;;;;;;;;;;;;;;;;4941723;28;19964;-84
2021/08/13 10:28:15;;;;;;;;;;;;;;;;;;4960027;28;19926;-85
2021/08/13 10:31:09;;;;;;;;;;;;;;;;;;4974138;28;19941;-85
2021/08/13 10:33:54;;;;;;;;;;;;;;;;;;4979825;28;19926;-81
2021/08/13 10:36:22;;;;;;;;;;;;;;;;;;4970958;28;19934;-83
2021/08/13 10:38:51;;;;;;;;;;;;;;;;;;4976896;28;19933;-84
2021/08/13 10:41:23;;;;;;;;;;;;;;;;;;4991074;28;19926;-87
2021/08/13 10:44:08;;;;;;;;;;;;;;;;;;4991475;28;19926;-85
2021/08/13 10:46:37;;;;;;;;;;;;;;;;;;4973681;28;19933;-84
2021/08/13 10:49:08;;;;;;;;;;;;;;;;;;4961876;28;19926;-86
2021/08/13 10:51:37;;;;;;;;;;;;;;;;;;4966950;28;19934;-82
2021/08/13 10:54:10;;;;;;;;;;;;;;;;;;4984325;28;19930;-84
2021/08/13 10:56:45;;;;;;;;;;;;;;;;;;4993579;28;19925;-85
2021/08/13 10:59:46;;;;;;;;;;;;;;;;;;4977224;28;19933;-83
2021/08/13 11:02:20;;;;;;;;;;;;;;;;;;4973074;28;19937;-82
2021/08/13 11:04:52;;;;;;;;;;;;;;;;;;4971018;28;19937;-83
2021/08/13 11:07:43;;;;;;;;;;;;;;;;;;4972109;28;19936;-84
2021/08/13 11:10:20;;;;;;;;;;;;;;;;;;4971887;28;20300;-81
2021/08/13 11:12:58;;;;;;;;;;;;;;;;;;4976046;28;19937;-83
2021/08/13 11:15:37;;;;;;;;;;;;;;;;;;4988432;28;19925;-83
2021/08/13 11:18:21;;;;;;;;;;;;;;;;;;4974332;28;19926;-84
2021/08/13 11:20:53;;;;;;;;;;;;;;;;;;4968494;28;19953;-85
2021/08/13 11:23:21;;;;;;;;;;;;;;;;;;4975015;28;20292;-84
2021/08/13 11:25:50;;;;;;;;;;;;;;;;;;4977375;28;19933;-88
2021/08/13 11:28:23;;;;;;;;;;;;;;;;;;4972835;28;19926;-83
2021/08/13 11:30:56;;;;;;;;;;;;;;;;;;4969607;28;19941;-85
2021/08/13 11:33:38;;;;;;;;;;;;;;;;;;4988071;28;19930;-83
2021/08/13 11:36:09;;;;;;;;;;;;;;;;;;4988843;28;19941;-85
2021/08/13 11:38:58;;;;;;;;;;;;;;;;;;4971919;28;20307;-83
2021/08/13 11:41:27;;;;;;;;;;;;;;;;;;4972168;28;19926;-83
2021/08/13 11:44:01;;;;;;;;;;;;;;;;;;4988997;28;19941;-84
2021/08/13 11:46:32;;;;;;;;;;;;;;;;;;4970684;28;19941;-83
2021/08/13 11:49:02;;;;;;;;;;;;;;;;;;4972724;28;19929;-85
2021/08/13 11:51:33;;;;;;;;;;;;;;;;;;4985312;28;19944;-84
2021/08/13 11:54:02;;;;;;;;;;;;;;;;;;4962721;28;19954;-82
2021/08/13 11:56:31;;;;;;;;;;;;;;;;;;4963142;28;19933;-88
2021/08/13 11:59:01;;;;;;;;;;;;;;;;;;4971007;28;19930;-86
2021/08/13 12:01:30;;;;;;;;;;;;;;;;;;4965501;28;19930;-83
2021/08/13 12:04:00;;;;;;;;;;;;;;;;;;4973255;28;19932;-84
2021/08/13 12:06:29;;;;;;;;;;;;;;;;;;4968864;28;19934;-82
2021/08/13 12:08:59;;;;;;;;;;;;;;;;;;4974642;28;20372;-85
2021/08/13 12:11:28;;;;;;;;;;;;;;;;;;4961987;28;19926;-84
2021/08/13 12:13:58;;;;;;;;;;;;;;;;;;4971719;28;20395;-84
2021/08/13 12:16:26;;;;;;;;;;;;;;;;;;4977998;28;19933;-82
2021/08/13 12:18:59;;;;;;;;;;;;;;;;;;4962912;28;20400;-86
2021/08/13 12:21:28;;;;;;;;;;;;;;;;;;4988833;28;20315;-84
2021/08/13 12:23:56;;;;;;;;;;;;;;;;;;4964570;28;19930;-84
2021/08/13 12:26:30;;;;;;;;;;;;;;;;;;4988461;28;19930;-85
2021/08/13 12:29:01;;;;;;;;;;;;;;;;;;4960483;28;19933;-82
2021/08/13 12:31:30;;;;;;;;;;;;;;;;;;4962490;28;20059;-84
2021/08/13 12:33:58;;;;;;;;;;;;;;;;;;4949902;28;20491;-82
2021/08/13 12:36:27;;;;;;;;;;;;;;;;;;4971680;28;19929;-86
2021/08/13 12:38:58;;;;;;;;;;;;;;;;;;4959414;28;19966;-83
2021/08/13 12:41:31;;;;;;;;;;;;;;;;;;4965144;28;19934;-85
2021/08/13 12:44:00;;;;;;;;;;;;;;;;;;4974065;28;20311;-82
2021/08/13 12:46:29;;;;;;;;;;;;;;;;;;4963771;28;19984;-81
2021/08/13 12:48:58;;;;;;;;;;;;;;;;;;4967140;28;19956;-85
2021/08/13 12:51:27;;;;;;;;;;;;;;;;;;4967682;28;19926;-83
2021/08/13 12:54:01;;;;;;;;;;;;;;;;;;4962915;28;19930;-81
2021/08/13 12:56:30;;;;;;;;;;;;;;;;;;4951245;28;20384;-81
2021/08/13 12:59:11;;;;;;;;;;;;;;;;;;4962056;28;19949;-86
2021/08/13 13:01:52;;;;;;;;;;;;;;;;;;4979824;28;20522;-82
2021/08/13 13:04:21;;;;;;;;;;;;;;;;;;4962574;28;19930;-83
2021/08/13 13:06:56;;;;;;;;;;;;;;;;;;4955227;28;19930;-84
2021/08/13 13:09:28;;;;;;;;;;;;;;;;;;4966203;28;20017;-82
2021/08/13 13:12:15;;;;;;;;;;;;;;;;;;4970735;28;19937;-85
2021/08/13 13:14:44;;;;;;;;;;;;;;;;;;4967770;28;20395;-82
2021/08/13 13:17:14;;;;;;;;;;;;;;;;;;4963066;28;19926;-83
2021/08/13 13:20:17;;;;;;;;;;;;;;;;;;4962055;28;19956;-83
2021/08/13 13:23:02;;;;;;;;;;;;;;;;;;4951305;28;19930;-84
2021/08/13 13:25:38;;;;;;;;;;;;;;;;;;4980217;28;20297;-81
2021/08/13 13:28:09;;;;;;;;;;;;;;;;;;4979460;28;19926;-81
2021/08/13 13:31:04;;;;;;;;;;;;;;;;;;4986687;28;19936;-82
2021/08/13 13:33:32;;;;;;;;;;;;;;;;;;4976400;28;19927;-86
2021/08/13 13:36:15;;;;;;;;;;;;;;;;;;4960841;28;19929;-82
2021/08/13 13:38:43;;;;;;;;;;;;;;;;;;4961224;28;20391;-84
2021/08/13 13:41:13;;;;;;;;;;;;;;;;;;4951697;28;19926;-86
2021/08/13 13:43:41;;;;;;;;;;;;;;;;;;4982274;28;19937;-80
2021/08/13 13:46:11;;;;;;;;;;;;;;;;;;4980642;28;20472;-85
2021/08/13 13:48:40;;;;;;;;;;;;;;;;;;4974068;28;20404;-84
2021/08/13 13:51:08;;;;;;;;;;;;;;;;;;4991662;28;19937;-82
2021/08/13 13:53:37;;;;;;;;;;;;;;;;;;4965538;28;20312;-83
2021/08/13 13:56:05;;;;;;;;;;;;;;;;;;4955971;28;19926;-81
2021/08/13 13:58:33;;;;;;;;;;;;;;;;;;4972416;28;20306;-82
2021/08/13 14:01:02;;;;;;;;;;;;;;;;;;4962310;28;19941;-85
2021/08/13 14:03:32;;;;;;;;;;;;;;;;;;4976767;28;19926;-84
2021/08/13 14:06:00;;;;;;;;;;;;;;;;;;4975058;28;19933;-83
2021/08/13 14:08:30;;;;;;;;;;;;;;;;;;4977313;28;19926;-85
2021/08/13 14:10:59;;;;;;;;;;;;;;;;;;4997669;28;19926;-83
2021/08/13 14:13:27;;;;;;;;;;;;;;;;;;4975023;28;19930;-82
2021/08/13 14:15:55;;;;;;;;;;;;;;;;;;4986210;28;19926;-82
2021/08/13 14:18:24;;;;;;;;;;;;;;;;;;4972033;28;19933;-82
2021/08/13 14:20:53;;;;;;;;;;;;;;;;;;4972715;28;19941;-82
2021/08/13 14:23:22;;;;;;;;;;;;;;;;;;4967038;28;19933;-83
2021/08/13 14:25:50;;;;;;;;;;;;;;;;;;4972304;28;19934;-82
2021/08/13 14:28:18;;;;;;;;;;;;;;;;;;4981122;28;19933;-82
2021/08/13 14:30:47;;;;;;;;;;;;;;;;;;4988515;28;19930;-81
2021/08/13 14:33:15;;;;;;;;;;;;;;;;;;4975626;28;19938;-83
2021/08/13 14:35:52;;;;;;;;;;;;;;;;;;4985256;28;19934;-84
2021/08/13 14:38:25;;;;;;;;;;;;;;;;;;4966691;28;19934;-86
2021/08/13 14:40:53;;;;;;;;;;;;;;;;;;4972289;28;19926;-84
2021/08/13 14:43:23;;;;;;;;;;;;;;;;;;4971977;28;19938;-82
2021/08/13 14:45:52;;;;;;;;;;;;;;;;;;4973778;28;19937;-85
2021/08/13 14:48:40;;;;;;;;;;;;;;;;;;4969964;28;19926;-81
2021/08/13 14:52:07;;;;;;;;;;;;;;;;;;4988708;28;19934;-81
2021/08/13 14:54:55;;;;;;;;;;;;;;;;;;4964994;28;19930;-83
2021/08/13 14:57:24;;;;;;;;;;;;;;;;;;4993576;28;19933;-82
2021/08/13 14:59:53;;;;;;;;;;;;;;;;;;4974165;28;19926;-82
2021/08/13 15:02:21;;;;;;;;;;;;;;;;;;4953639;28;19926;-83
2021/08/13 15:04:49;;;;;;;;;;;;;;;;;;4982925;28;19926;-82
2021/08/13 15:07:18;;;;;;;;;;;;;;;;;;4974286;28;19936;-80
2021/08/13 15:09:49;;;;;;;;;;;;;;;;;;4979135;28;20351;-82
2021/08/13 15:12:19;;;;;;;;;;;;;;;;;;4975133;28;20552;-82
2021/08/13 15:14:47;;;;;;;;;;;;;;;;;;4953529;28;19934;-82
2021/08/13 15:17:16;;;;;;;;;;;;;;;;;;4968845;28;19932;-81
2021/08/13 15:19:44;;;;;;;;;;;;;;;;;;4986061;28;19930;-83
2021/08/13 15:22:12;;;;;;;;;;;;;;;;;;4972283;28;19965;-81
2021/08/13 15:24:41;;;;;;;;;;;;;;;;;;4965013;28;19930;-87
2021/08/13 15:27:09;;;;;;;;;;;;;;;;;;4972488;28;19949;-83
2021/08/13 15:29:38;;;;;;;;;;;;;;;;;;4987280;28;20417;-83
2021/08/13 15:32:07;;;;;;;;;;;;;;;;;;4961491;28;19926;-82
2021/08/13 15:34:35;;;;;;;;;;;;;;;;;;4975496;28;19934;-87
2021/08/13 15:37:04;;;;;;;;;;;;;;;;;;4980917;28;19925;-82
2021/08/13 15:39:32;;;;;;;;;;;;;;;;;;4965410;28;19933;-83
2021/08/13 15:42:00;;;;;;;;;;;;;;;;;;4960994;28;19934;-81
2021/08/13 15:44:29;;;;;;;;;;;;;;;;;;4965826;28;19937;-81
2021/08/13 15:46:58;;;;;;;;;;;;;;;;;;4986312;28;19926;-81
2021/08/13 15:49:26;;;;;;;;;;;;;;;;;;4967632;28;19930;-80
2021/08/13 15:51:54;;;;;;;;;;;;;;;;;;4954488;28;19926;-83
2021/08/13 15:54:23;;;;;;;;;;;;;;;;;;4965308;28;19930;-81
2021/08/13 15:56:51;;;;;;;;;;;;;;;;;;4988757;28;19926;-81
2021/08/13 15:59:19;;;;;;;;;;;;;;;;;;4953685;28;20403;-84
2021/08/13 16:01:47;;;;;;;;;;;;;;;;;;4987963;28;19937;-81
2021/08/13 16:04:17;;;;;;;;;;;;;;;;;;4970844;28;19926;-83
2021/08/13 16:06:46;;;;;;;;;;;;;;;;;;4966824;28;19926;-81
2021/08/13 16:09:14;;;;;;;;;;;;;;;;;;4964575;28;20381;-80
2021/08/13 16:11:42;;;;;;;;;;;;;;;;;;4956317;28;20345;-80
2021/08/13 16:14:10;;;;;;;;;;;;;;;;;;4951071;28;20312;-81
2021/08/13 16:16:38;;;;;;;;;;;;;;;;;;4972701;28;20311;-82
2021/08/13 16:19:07;;;;;;;;;;;;;;;;;;4964387;28;19963;-81
2021/08/13 16:21:41;;;;;;;;;;;;;;;;;;4978337;28;19930;-81
2021/08/13 16:24:09;;;;;;;;;;;;;;;;;;4962691;28;19929;-80
2021/08/13 16:26:39;;;;;;;;;;;;;;;;;;4974445;28;19933;-80
2021/08/13 16:29:07;;;;;;;;;;;;;;;;;;4976938;28;19978;-83
2021/08/13 16:31:35;;;;;;;;;;;;;;;;;;4979134;28;19929;-83
2021/08/13 16:34:03;;;;;;;;;;;;;;;;;;4979850;28;19926;-82
2021/08/13 16:36:32;;;;;;;;;;;;;;;;;;4973845;28;19926;-82
2021/08/13 16:39:01;;;;;;;;;;;;;;;;;;4978960;28;19934;-80
2021/08/13 16:41:29;;;;;;;;;;;;;;;;;;4963720;28;19930;-81
2021/08/13 16:43:59;;;;;;;;;;;;;;;;;;4971116;28;19926;-82
2021/08/13 16:46:27;;;;;;;;;;;;;;;;;;4975919;28;19930;-80
2021/08/13 16:48:55;;;;;;;;;;;;;;;;;;4966508;28;19930;-83
2021/08/13 16:51:24;;;;;;;;;;;;;;;;;;4968986;28;19941;-81
2021/08/13 16:53:52;;;;;;;;;;;;;;;;;;4966515;28;19925;-81
2021/08/13 16:56:22;;;;;;;;;;;;;;;;;;4965257;28;19929;-80
2021/08/13 16:58:50;;;;;;;;;;;;;;;;;;4963802;28;19934;-83
2021/08/13 17:01:18;;;;;;;;;;;;;;;;;;4974492;28;19933;-83
2021/08/13 17:03:47;;;;;;;;;;;;;;;;;;4951238;28;19930;-80
2021/08/13 17:06:16;;;;;;;;;;;;;;;;;;4962705;28;20026;-80
2021/08/13 17:08:45;;;;;;;;;;;;;;;;;;4987774;28;19934;-80
2021/08/13 17:11:14;;;;;;;;;;;;;;;;;;4979434;28;20301;-81
2021/08/13 17:13:43;;;;;;;;;;;;;;;;;;4970452;28;19934;-80
2021/08/13 17:16:11;;;;;;;;;;;;;;;;;;4980193;28;19933;-80
2021/08/13 17:18:40;;;;;;;;;;;;;;;;;;4970387;28;19936;-80
2021/08/13 17:21:10;;;;;;;;;;;;;;;;;;4950640;28;19933;-81